Aviation Digital Data Service (ADDS)

Output produced by METARs form (2118 UTC 08 February 2023)
found at http://aviationweather.gov/metar/data/
 
METAR text: KVTP 082115Z AUTO 24012G18KT 10SM CLR M03/M12 A3000 RMK AO2
Conditions at: KVTP (LA VETA PASS , CO, US) observed 2115 UTC 08 February 2023
Temperature: -3.0°C (27°F)
Dewpoint: -12.0°C (10°F) [RH = 50%]
Pressure (altimeter): 30.00 inches Hg (1016.0 mb)
Winds: from the WSW (240 degrees) at 14 MPH (12 knots; 6.2 m/s)
gusting to 21 MPH (18 knots; 9.3 m/s)
Visibility: 10 or more miles (16+ km)
Ceiling: at least 12,000 feet AGL
Clouds: sky clear below 12,000 feet AGL
Weather: automated observation with no human augmentation;
there may or may not be significant weather present at this time

METAR text: KVTP 082055Z AUTO 25012G18KT 10SM CLR M03/M12 A3000 RMK AO2
Conditions at: KVTP (LA VETA PASS , CO, US) observed 2055 UTC 08 February 2023
Temperature: -3.0°C (27°F)
Dewpoint: -12.0°C (10°F) [RH = 50%]
Pressure (altimeter): 30.00 inches Hg (1016.0 mb)
Winds: from the WSW (250 degrees) at 14 MPH (12 knots; 6.2 m/s)
gusting to 21 MPH (18 knots; 9.3 m/s)
Visibility: 10 or more miles (16+ km)
Ceiling: at least 12,000 feet AGL
Clouds: sky clear below 12,000 feet AGL
Weather: automated observation with no human augmentation;
there may or may not be significant weather present at this time

METAR text: KVTP 082035Z AUTO 25012G20KT 10SM CLR M04/M13 A3000 RMK AO2
Conditions at: KVTP (LA VETA PASS , CO, US) observed 2035 UTC 08 February 2023
Temperature: -4.0°C (25°F)
Dewpoint: -13.0°C ( 9°F) [RH = 50%]
Pressure (altimeter): 30.00 inches Hg (1016.0 mb)
Winds: from the WSW (250 degrees) at 14 MPH (12 knots; 6.2 m/s)
gusting to 23 MPH (20 knots; 10.3 m/s)
Visibility: 10 or more miles (16+ km)
Ceiling: at least 12,000 feet AGL
Clouds: sky clear below 12,000 feet AGL
Weather: automated observation with no human augmentation;
there may or may not be significant weather present at this time